sensor_id;sensor_type;location;lat;lon;timestamp;P1;durP1;ratioP1;P2;durP2;ratioP2
18082;SDS011;9168;51.194;6.840;2022-09-28T00:00:53;3.67;;;1.80;;
18082;SDS011;9168;51.194;6.840;2022-09-28T00:03:20;3.50;;;1.70;;
18082;SDS011;9168;51.194;6.840;2022-09-28T00:05:47;4.65;;;2.05;;
18082;SDS011;9168;51.194;6.840;2022-09-28T00:08:15;5.95;;;1.77;;
18082;SDS011;9168;51.194;6.840;2022-09-28T00:10:42;4.70;;;1.60;;
18082;SDS011;9168;51.194;6.840;2022-09-28T00:13:09;6.28;;;1.77;;
18082;SDS011;9168;51.194;6.840;2022-09-28T00:15:36;5.05;;;1.77;;
18082;SDS011;9168;51.194;6.840;2022-09-28T00:18:03;6.10;;;2.20;;
18082;SDS011;9168;51.194;6.840;2022-09-28T00:20:30;3.47;;;1.67;;
18082;SDS011;9168;51.194;6.840;2022-09-28T00:22:57;4.40;;;1.60;;
18082;SDS011;9168;51.194;6.840;2022-09-28T00:25:25;3.60;;;1.58;;
18082;SDS011;9168;51.194;6.840;2022-09-28T00:27:52;3.40;;;1.50;;
18082;SDS011;9168;51.194;6.840;2022-09-28T00:30:19;3.13;;;1.60;;
18082;SDS011;9168;51.194;6.840;2022-09-28T00:32:45;5.57;;;1.75;;
18082;SDS011;9168;51.194;6.840;2022-09-28T00:35:12;5.57;;;1.63;;
18082;SDS011;9168;51.194;6.840;2022-09-28T00:37:39;4.03;;;1.75;;
18082;SDS011;9168;51.194;6.840;2022-09-28T00:40:06;4.88;;;1.73;;
18082;SDS011;9168;51.194;6.840;2022-09-28T00:42:35;4.28;;;1.50;;
18082;SDS011;9168;51.194;6.840;2022-09-28T00:45:02;6.07;;;1.58;;
18082;SDS011;9168;51.194;6.840;2022-09-28T00:50:17;4.75;;;1.38;;
18082;SDS011;9168;51.194;6.840;2022-09-28T00:52:50;8.57;;;1.90;;
18082;SDS011;9168;51.194;6.840;2022-09-28T00:55:21;3.33;;;2.10;;
18082;SDS011;9168;51.194;6.840;2022-09-28T00:57:54;6.75;;;2.33;;
18082;SDS011;9168;51.194;6.840;2022-09-28T01:00:23;5.85;;;2.65;;
18082;SDS011;9168;51.194;6.840;2022-09-28T01:02:50;4.10;;;2.60;;
18082;SDS011;9168;51.194;6.840;2022-09-28T01:05:17;5.53;;;2.58;;
18082;SDS011;9168;51.194;6.840;2022-09-28T01:07:45;6.78;;;3.33;;
18082;SDS011;9168;51.194;6.840;2022-09-28T01:10:13;9.13;;;3.90;;
18082;SDS011;9168;51.194;6.840;2022-09-28T01:12:40;11.23;;;3.47;;
18082;SDS011;9168;51.194;6.840;2022-09-28T01:15:09;4.82;;;2.85;;
18082;SDS011;9168;51.194;6.840;2022-09-28T01:17:39;8.63;;;4.15;;
18082;SDS011;9168;51.194;6.840;2022-09-28T01:20:23;5.45;;;3.72;;
18082;SDS011;9168;51.194;6.840;2022-09-28T01:25:52;6.82;;;4.30;;
18082;SDS011;9168;51.194;6.840;2022-09-28T01:28:22;14.15;;;4.32;;
18082;SDS011;9168;51.194;6.840;2022-09-28T01:30:55;9.43;;;5.00;;
18082;SDS011;9168;51.194;6.840;2022-09-28T01:33:31;6.35;;;4.28;;
18082;SDS011;9168;51.194;6.840;2022-09-28T01:36:04;8.57;;;4.68;;
18082;SDS011;9168;51.194;6.840;2022-09-28T01:38:35;10.32;;;4.85;;
18082;SDS011;9168;51.194;6.840;2022-09-28T01:41:05;10.88;;;5.82;;
18082;SDS011;9168;51.194;6.840;2022-09-28T01:43:35;7.43;;;5.05;;
18082;SDS011;9168;51.194;6.840;2022-09-28T01:46:06;7.63;;;5.15;;
18082;SDS011;9168;51.194;6.840;2022-09-28T01:48:39;8.07;;;5.28;;
18082;SDS011;9168;51.194;6.840;2022-09-28T01:51:11;11.98;;;5.72;;
18082;SDS011;9168;51.194;6.840;2022-09-28T01:53:44;8.18;;;5.28;;
18082;SDS011;9168;51.194;6.840;2022-09-28T01:56:15;8.10;;;5.38;;
18082;SDS011;9168;51.194;6.840;2022-09-28T01:58:48;11.80;;;5.43;;
18082;SDS011;9168;51.194;6.840;2022-09-28T02:01:21;8.75;;;5.57;;
18082;SDS011;9168;51.194;6.840;2022-09-28T02:03:54;10.53;;;5.67;;
18082;SDS011;9168;51.194;6.840;2022-09-28T02:06:27;8.20;;;5.28;;
18082;SDS011;9168;51.194;6.840;2022-09-28T02:09:01;9.13;;;5.68;;
18082;SDS011;9168;51.194;6.840;2022-09-28T02:11:30;9.90;;;5.82;;
18082;SDS011;9168;51.194;6.840;2022-09-28T02:14:03;9.15;;;6.00;;
18082;SDS011;9168;51.194;6.840;2022-09-28T02:16:34;11.90;;;6.05;;
18082;SDS011;9168;51.194;6.840;2022-09-28T02:19:04;8.75;;;5.95;;
18082;SDS011;9168;51.194;6.840;2022-09-28T02:21:36;12.20;;;5.93;;
18082;SDS011;9168;51.194;6.840;2022-09-28T02:24:08;10.18;;;5.68;;
18082;SDS011;9168;51.194;6.840;2022-09-28T02:26:40;11.40;;;6.00;;
18082;SDS011;9168;51.194;6.840;2022-09-28T02:29:10;9.40;;;5.57;;
18082;SDS011;9168;51.194;6.840;2022-09-28T02:31:37;14.73;;;5.95;;
18082;SDS011;9168;51.194;6.840;2022-09-28T02:34:04;7.95;;;5.57;;
18082;SDS011;9168;51.194;6.840;2022-09-28T02:36:31;10.30;;;4.95;;
18082;SDS011;9168;51.194;6.840;2022-09-28T02:38:59;8.27;;;5.30;;
18082;SDS011;9168;51.194;6.840;2022-09-28T02:41:30;14.13;;;5.60;;
18082;SDS011;9168;51.194;6.840;2022-09-28T02:44:09;8.52;;;5.50;;
18082;SDS011;9168;51.194;6.840;2022-09-28T02:46:44;11.30;;;5.35;;
18082;SDS011;9168;51.194;6.840;2022-09-28T02:49:22;8.55;;;5.60;;
18082;SDS011;9168;51.194;6.840;2022-09-28T02:52:00;8.98;;;6.00;;
18082;SDS011;9168;51.194;6.840;2022-09-28T02:54:50;9.98;;;6.30;;
18082;SDS011;9168;51.194;6.840;2022-09-28T02:57:38;16.60;;;6.63;;
18082;SDS011;9168;51.194;6.840;2022-09-28T03:00:15;15.40;;;7.30;;
18082;SDS011;9168;51.194;6.840;2022-09-28T03:02:47;12.25;;;7.50;;
18082;SDS011;9168;51.194;6.840;2022-09-28T03:05:24;11.70;;;7.38;;
18082;SDS011;9168;51.194;6.840;2022-09-28T03:08:00;13.13;;;7.60;;
18082;SDS011;9168;51.194;6.840;2022-09-28T03:10:33;13.77;;;7.60;;
18082;SDS011;9168;51.194;6.840;2022-09-28T03:13:04;15.60;;;7.95;;
18082;SDS011;9168;51.194;6.840;2022-09-28T03:15:34;13.23;;;7.70;;
18082;SDS011;9168;51.194;6.840;2022-09-28T03:18:02;12.98;;;7.97;;
18082;SDS011;9168;51.194;6.840;2022-09-28T03:20:29;12.55;;;8.77;;
18082;SDS011;9168;51.194;6.840;2022-09-28T03:22:57;14.23;;;8.48;;
18082;SDS011;9168;51.194;6.840;2022-09-28T03:25:24;15.95;;;8.48;;
18082;SDS011;9168;51.194;6.840;2022-09-28T03:27:51;13.85;;;8.98;;
18082;SDS011;9168;51.194;6.840;2022-09-28T03:30:18;17.40;;;9.60;;
18082;SDS011;9168;51.194;6.840;2022-09-28T03:32:51;16.58;;;9.98;;
18082;SDS011;9168;51.194;6.840;2022-09-28T03:35:22;16.92;;;10.00;;
18082;SDS011;9168;51.194;6.840;2022-09-28T03:37:49;16.55;;;10.30;;
18082;SDS011;9168;51.194;6.840;2022-09-28T03:40:19;17.58;;;10.93;;
18082;SDS011;9168;51.194;6.840;2022-09-28T03:42:46;16.70;;;10.90;;
18082;SDS011;9168;51.194;6.840;2022-09-28T03:45:13;15.25;;;9.82;;
18082;SDS011;9168;51.194;6.840;2022-09-28T03:47:43;16.13;;;11.02;;
18082;SDS011;9168;51.194;6.840;2022-09-28T03:50:12;16.13;;;11.70;;
18082;SDS011;9168;51.194;6.840;2022-09-28T03:52:39;17.27;;;11.85;;
18082;SDS011;9168;51.194;6.840;2022-09-28T03:55:07;19.90;;;12.25;;
18082;SDS011;9168;51.194;6.840;2022-09-28T03:57:34;19.50;;;12.15;;
18082;SDS011;9168;51.194;6.840;2022-09-28T04:00:01;19.10;;;11.68;;
18082;SDS011;9168;51.194;6.840;2022-09-28T04:02:29;22.20;;;12.52;;
18082;SDS011;9168;51.194;6.840;2022-09-28T04:04:56;18.38;;;13.48;;
18082;SDS011;9168;51.194;6.840;2022-09-28T04:07:24;20.02;;;13.10;;
18082;SDS011;9168;51.194;6.840;2022-09-28T04:09:51;23.60;;;13.35;;
18082;SDS011;9168;51.194;6.840;2022-09-28T04:12:17;18.88;;;12.07;;
18082;SDS011;9168;51.194;6.840;2022-09-28T04:14:44;20.92;;;12.73;;
18082;SDS011;9168;51.194;6.840;2022-09-28T04:17:11;25.30;;;13.25;;
18082;SDS011;9168;51.194;6.840;2022-09-28T04:19:38;19.90;;;13.65;;
18082;SDS011;9168;51.194;6.840;2022-09-28T04:22:05;18.90;;;13.07;;
18082;SDS011;9168;51.194;6.840;2022-09-28T04:24:33;22.85;;;13.63;;
18082;SDS011;9168;51.194;6.840;2022-09-28T04:27:00;28.23;;;14.13;;
18082;SDS011;9168;51.194;6.840;2022-09-28T04:29:41;26.08;;;15.00;;
18082;SDS011;9168;51.194;6.840;2022-09-28T04:32:08;25.80;;;15.02;;
18082;SDS011;9168;51.194;6.840;2022-09-28T04:34:36;21.25;;;14.68;;
18082;SDS011;9168;51.194;6.840;2022-09-28T04:37:02;24.17;;;15.38;;
18082;SDS011;9168;51.194;6.840;2022-09-28T04:39:30;28.77;;;15.75;;
18082;SDS011;9168;51.194;6.840;2022-09-28T04:41:58;24.73;;;15.63;;
18082;SDS011;9168;51.194;6.840;2022-09-28T04:44:25;23.17;;;15.25;;
18082;SDS011;9168;51.194;6.840;2022-09-28T04:46:53;22.70;;;16.33;;
18082;SDS011;9168;51.194;6.840;2022-09-28T04:49:20;24.25;;;15.93;;
18082;SDS011;9168;51.194;6.840;2022-09-28T04:51:48;26.27;;;15.02;;
18082;SDS011;9168;51.194;6.840;2022-09-28T04:54:15;25.85;;;15.18;;
18082;SDS011;9168;51.194;6.840;2022-09-28T04:56:42;27.05;;;14.40;;
18082;SDS011;9168;51.194;6.840;2022-09-28T04:59:10;23.25;;;15.07;;
18082;SDS011;9168;51.194;6.840;2022-09-28T05:01:37;21.35;;;14.63;;
18082;SDS011;9168;51.194;6.840;2022-09-28T05:04:04;26.25;;;15.02;;
18082;SDS011;9168;51.194;6.840;2022-09-28T05:06:31;25.67;;;14.75;;
18082;SDS011;9168;51.194;6.840;2022-09-28T05:08:58;21.90;;;14.50;;
18082;SDS011;9168;51.194;6.840;2022-09-28T05:11:25;20.73;;;14.30;;
18082;SDS011;9168;51.194;6.840;2022-09-28T05:13:52;23.67;;;14.40;;
18082;SDS011;9168;51.194;6.840;2022-09-28T05:16:20;23.05;;;13.70;;
18082;SDS011;9168;51.194;6.840;2022-09-28T05:18:53;22.75;;;14.77;;
18082;SDS011;9168;51.194;6.840;2022-09-28T05:21:20;19.83;;;14.02;;
18082;SDS011;9168;51.194;6.840;2022-09-28T05:23:49;19.67;;;13.57;;
18082;SDS011;9168;51.194;6.840;2022-09-28T05:26:16;22.73;;;13.95;;
18082;SDS011;9168;51.194;6.840;2022-09-28T05:28:43;23.52;;;13.77;;
18082;SDS011;9168;51.194;6.840;2022-09-28T05:31:10;25.20;;;15.18;;
18082;SDS011;9168;51.194;6.840;2022-09-28T05:33:38;21.33;;;13.38;;
18082;SDS011;9168;51.194;6.840;2022-09-28T05:36:07;21.13;;;13.35;;
18082;SDS011;9168;51.194;6.840;2022-09-28T05:38:35;23.00;;;13.47;;
18082;SDS011;9168;51.194;6.840;2022-09-28T05:41:02;20.73;;;12.48;;
18082;SDS011;9168;51.194;6.840;2022-09-28T05:43:29;19.20;;;11.60;;
18082;SDS011;9168;51.194;6.840;2022-09-28T05:45:57;18.83;;;13.20;;
18082;SDS011;9168;51.194;6.840;2022-09-28T05:48:24;21.95;;;12.65;;
18082;SDS011;9168;51.194;6.840;2022-09-28T05:50:53;19.75;;;11.63;;
18082;SDS011;9168;51.194;6.840;2022-09-28T05:53:20;18.23;;;12.25;;
18082;SDS011;9168;51.194;6.840;2022-09-28T05:55:47;18.83;;;11.15;;
18082;SDS011;9168;51.194;6.840;2022-09-28T05:58:14;20.52;;;10.80;;
18082;SDS011;9168;51.194;6.840;2022-09-28T06:00:41;20.38;;;11.18;;
18082;SDS011;9168;51.194;6.840;2022-09-28T06:03:09;17.80;;;11.35;;
18082;SDS011;9168;51.194;6.840;2022-09-28T06:05:37;22.58;;;9.80;;
18082;SDS011;9168;51.194;6.840;2022-09-28T06:08:06;14.20;;;9.75;;
18082;SDS011;9168;51.194;6.840;2022-09-28T06:10:34;19.40;;;10.23;;
18082;SDS011;9168;51.194;6.840;2022-09-28T06:13:01;23.67;;;10.75;;
18082;SDS011;9168;51.194;6.840;2022-09-28T06:15:29;15.15;;;9.52;;
18082;SDS011;9168;51.194;6.840;2022-09-28T06:17:57;15.02;;;9.13;;
18082;SDS011;9168;51.194;6.840;2022-09-28T06:20:25;17.65;;;10.00;;
18082;SDS011;9168;51.194;6.840;2022-09-28T06:22:53;16.52;;;8.95;;
18082;SDS011;9168;51.194;6.840;2022-09-28T06:25:22;14.18;;;8.95;;
18082;SDS011;9168;51.194;6.840;2022-09-28T06:27:55;14.43;;;8.27;;
18082;SDS011;9168;51.194;6.840;2022-09-28T06:30:23;14.37;;;8.83;;
18082;SDS011;9168;51.194;6.840;2022-09-28T06:32:51;17.63;;;8.82;;
18082;SDS011;9168;51.194;6.840;2022-09-28T06:35:20;14.50;;;8.70;;
18082;SDS011;9168;51.194;6.840;2022-09-28T06:37:47;16.63;;;9.03;;
18082;SDS011;9168;51.194;6.840;2022-09-28T06:40:14;13.57;;;8.68;;
18082;SDS011;9168;51.194;6.840;2022-09-28T06:42:42;21.27;;;8.52;;
18082;SDS011;9168;51.194;6.840;2022-09-28T06:45:09;14.15;;;8.25;;
18082;SDS011;9168;51.194;6.840;2022-09-28T06:47:37;16.58;;;9.18;;
18082;SDS011;9168;51.194;6.840;2022-09-28T06:50:04;14.55;;;8.55;;
18082;SDS011;9168;51.194;6.840;2022-09-28T06:52:37;16.75;;;8.23;;
18082;SDS011;9168;51.194;6.840;2022-09-28T06:55:04;14.90;;;8.10;;
18082;SDS011;9168;51.194;6.840;2022-09-28T06:57:31;15.00;;;8.13;;
18082;SDS011;9168;51.194;6.840;2022-09-28T07:00:00;22.23;;;7.95;;
18082;SDS011;9168;51.194;6.840;2022-09-28T07:02:27;13.55;;;7.72;;
18082;SDS011;9168;51.194;6.840;2022-09-28T07:04:55;13.75;;;7.43;;
18082;SDS011;9168;51.194;6.840;2022-09-28T07:07:23;11.93;;;7.32;;
18082;SDS011;9168;51.194;6.840;2022-09-28T07:09:51;14.30;;;7.10;;
18082;SDS011;9168;51.194;6.840;2022-09-28T07:12:19;14.68;;;6.40;;
18082;SDS011;9168;51.194;6.840;2022-09-28T07:14:48;12.68;;;6.63;;
18082;SDS011;9168;51.194;6.840;2022-09-28T07:17:21;22.83;;;6.47;;
18082;SDS011;9168;51.194;6.840;2022-09-28T07:19:48;13.90;;;6.72;;
18082;SDS011;9168;51.194;6.840;2022-09-28T07:22:16;11.60;;;6.65;;
18082;SDS011;9168;51.194;6.840;2022-09-28T07:24:44;11.88;;;5.60;;
18082;SDS011;9168;51.194;6.840;2022-09-28T07:27:12;11.52;;;6.30;;
18082;SDS011;9168;51.194;6.840;2022-09-28T07:29:39;11.82;;;6.20;;
18082;SDS011;9168;51.194;6.840;2022-09-28T07:32:05;10.65;;;5.40;;
18082;SDS011;9168;51.194;6.840;2022-09-28T07:34:34;12.52;;;6.28;;
18082;SDS011;9168;51.194;6.840;2022-09-28T07:37:08;13.82;;;6.18;;
18082;SDS011;9168;51.194;6.840;2022-09-28T07:39:37;12.55;;;6.35;;
18082;SDS011;9168;51.194;6.840;2022-09-28T07:42:18;13.23;;;6.40;;
18082;SDS011;9168;51.194;6.840;2022-09-28T07:44:45;13.73;;;6.72;;
18082;SDS011;9168;51.194;6.840;2022-09-28T07:47:12;13.57;;;5.93;;
18082;SDS011;9168;51.194;6.840;2022-09-28T07:49:40;12.80;;;6.22;;
18082;SDS011;9168;51.194;6.840;2022-09-28T07:52:07;17.60;;;6.85;;
18082;SDS011;9168;51.194;6.840;2022-09-28T07:54:36;18.13;;;6.20;;
18082;SDS011;9168;51.194;6.840;2022-09-28T07:57:04;10.05;;;5.85;;
18082;SDS011;9168;51.194;6.840;2022-09-28T07:59:31;12.75;;;5.75;;
18082;SDS011;9168;51.194;6.840;2022-09-28T08:01:58;9.88;;;5.53;;
18082;SDS011;9168;51.194;6.840;2022-09-28T08:04:25;11.45;;;5.80;;
18082;SDS011;9168;51.194;6.840;2022-09-28T08:06:55;11.30;;;5.18;;
18082;SDS011;9168;51.194;6.840;2022-09-28T08:09:24;11.63;;;5.78;;
18082;SDS011;9168;51.194;6.840;2022-09-28T08:11:51;16.63;;;6.50;;
18082;SDS011;9168;51.194;6.840;2022-09-28T08:14:18;12.07;;;6.07;;
18082;SDS011;9168;51.194;6.840;2022-09-28T08:16:46;11.23;;;4.80;;
18082;SDS011;9168;51.194;6.840;2022-09-28T08:19:12;10.77;;;5.68;;
18082;SDS011;9168;51.194;6.840;2022-09-28T08:21:39;9.45;;;5.47;;
18082;SDS011;9168;51.194;6.840;2022-09-28T08:24:12;11.88;;;5.13;;
18082;SDS011;9168;51.194;6.840;2022-09-28T08:26:41;7.82;;;4.50;;
18082;SDS011;9168;51.194;6.840;2022-09-28T08:29:09;12.68;;;5.10;;
18082;SDS011;9168;51.194;6.840;2022-09-28T08:31:37;11.73;;;5.32;;
18082;SDS011;9168;51.194;6.840;2022-09-28T08:34:03;9.45;;;4.72;;
18082;SDS011;9168;51.194;6.840;2022-09-28T08:36:30;16.92;;;5.13;;
18082;SDS011;9168;51.194;6.840;2022-09-28T08:38:57;10.93;;;5.57;;
18082;SDS011;9168;51.194;6.840;2022-09-28T08:41:29;12.32;;;5.65;;
18082;SDS011;9168;51.194;6.840;2022-09-28T08:44:13;15.25;;;5.00;;
18082;SDS011;9168;51.194;6.840;2022-09-28T08:46:48;13.90;;;4.95;;
18082;SDS011;9168;51.194;6.840;2022-09-28T08:49:19;12.07;;;4.68;;
18082;SDS011;9168;51.194;6.840;2022-09-28T08:51:53;10.65;;;4.88;;
18082;SDS011;9168;51.194;6.840;2022-09-28T08:54:26;11.55;;;4.75;;
18082;SDS011;9168;51.194;6.840;2022-09-28T08:57:00;11.68;;;4.82;;
18082;SDS011;9168;51.194;6.840;2022-09-28T08:59:30;9.98;;;4.38;;
18082;SDS011;9168;51.194;6.840;2022-09-28T09:02:13;10.10;;;4.50;;
18082;SDS011;9168;51.194;6.840;2022-09-28T09:04:43;13.38;;;5.00;;
18082;SDS011;9168;51.194;6.840;2022-09-28T09:07:14;14.35;;;4.43;;
18082;SDS011;9168;51.194;6.840;2022-09-28T09:09:59;12.27;;;4.30;;
18082;SDS011;9168;51.194;6.840;2022-09-28T09:12:37;7.18;;;4.30;;
18082;SDS011;9168;51.194;6.840;2022-09-28T09:18:08;10.85;;;4.30;;
18082;SDS011;9168;51.194;6.840;2022-09-28T09:20:47;9.15;;;4.32;;
18082;SDS011;9168;51.194;6.840;2022-09-28T09:23:18;8.68;;;3.88;;
18082;SDS011;9168;51.194;6.840;2022-09-28T09:25:49;8.63;;;3.85;;
18082;SDS011;9168;51.194;6.840;2022-09-28T09:28:30;11.68;;;4.22;;
18082;SDS011;9168;51.194;6.840;2022-09-28T09:31:21;9.80;;;3.75;;
18082;SDS011;9168;51.194;6.840;2022-09-28T09:34:01;11.60;;;3.80;;
18082;SDS011;9168;51.194;6.840;2022-09-28T09:39:38;12.45;;;3.70;;
18082;SDS011;9168;51.194;6.840;2022-09-28T09:42:19;13.15;;;3.42;;
18082;SDS011;9168;51.194;6.840;2022-09-28T09:45:12;6.57;;;2.80;;
18082;SDS011;9168;51.194;6.840;2022-09-28T09:47:54;8.50;;;2.40;;
18082;SDS011;9168;51.194;6.840;2022-09-28T09:50:26;10.07;;;2.85;;
18082;SDS011;9168;51.194;6.840;2022-09-28T09:52:57;7.35;;;2.47;;
18082;SDS011;9168;51.194;6.840;2022-09-28T09:55:28;10.00;;;2.42;;
18082;SDS011;9168;51.194;6.840;2022-09-28T09:58:01;7.95;;;2.10;;
18082;SDS011;9168;51.194;6.840;2022-09-28T10:00:35;9.45;;;1.75;;
18082;SDS011;9168;51.194;6.840;2022-09-28T10:03:05;5.15;;;1.60;;
18082;SDS011;9168;51.194;6.840;2022-09-28T10:05:32;4.15;;;1.33;;
18082;SDS011;9168;51.194;6.840;2022-09-28T10:08:02;6.25;;;2.03;;
18082;SDS011;9168;51.194;6.840;2022-09-28T10:10:36;7.10;;;1.83;;
18082;SDS011;9168;51.194;6.840;2022-09-28T10:13:07;3.92;;;1.48;;
18082;SDS011;9168;51.194;6.840;2022-09-28T10:15:36;4.25;;;1.60;;
18082;SDS011;9168;51.194;6.840;2022-09-28T10:18:09;3.58;;;1.35;;
18082;SDS011;9168;51.194;6.840;2022-09-28T10:20:38;8.48;;;1.48;;
18082;SDS011;9168;51.194;6.840;2022-09-28T10:23:11;4.40;;;1.38;;
18082;SDS011;9168;51.194;6.840;2022-09-28T10:25:44;3.38;;;1.40;;
18082;SDS011;9168;51.194;6.840;2022-09-28T10:28:14;7.50;;;1.88;;
18082;SDS011;9168;51.194;6.840;2022-09-28T10:30:48;6.53;;;1.30;;
18082;SDS011;9168;51.194;6.840;2022-09-28T10:33:26;8.45;;;1.33;;
18082;SDS011;9168;51.194;6.840;2022-09-28T10:35:54;4.80;;;1.48;;
18082;SDS011;9168;51.194;6.840;2022-09-28T10:38:22;7.05;;;1.40;;
18082;SDS011;9168;51.194;6.840;2022-09-28T10:40:49;5.28;;;1.30;;
18082;SDS011;9168;51.194;6.840;2022-09-28T10:43:20;6.72;;;1.42;;
18082;SDS011;9168;51.194;6.840;2022-09-28T10:45:59;4.15;;;1.58;;
18082;SDS011;9168;51.194;6.840;2022-09-28T10:48:31;7.07;;;1.58;;
18082;SDS011;9168;51.194;6.840;2022-09-28T10:51:11;3.97;;;1.70;;
18082;SDS011;9168;51.194;6.840;2022-09-28T10:53:38;4.90;;;1.30;;
18082;SDS011;9168;51.194;6.840;2022-09-28T10:56:05;7.38;;;1.55;;
18082;SDS011;9168;51.194;6.840;2022-09-28T10:58:43;7.53;;;1.50;;
18082;SDS011;9168;51.194;6.840;2022-09-28T11:01:12;5.95;;;1.80;;
18082;SDS011;9168;51.194;6.840;2022-09-28T11:03:47;4.53;;;1.75;;
18082;SDS011;9168;51.194;6.840;2022-09-28T11:06:22;9.23;;;2.10;;
18082;SDS011;9168;51.194;6.840;2022-09-28T11:08:51;7.28;;;1.92;;
18082;SDS011;9168;51.194;6.840;2022-09-28T11:11:19;5.32;;;1.60;;
18082;SDS011;9168;51.194;6.840;2022-09-28T11:13:48;4.57;;;1.73;;
18082;SDS011;9168;51.194;6.840;2022-09-28T11:16:27;4.40;;;1.80;;
18082;SDS011;9168;51.194;6.840;2022-09-28T11:18:55;7.40;;;1.95;;
18082;SDS011;9168;51.194;6.840;2022-09-28T11:21:24;14.30;;;2.20;;
18082;SDS011;9168;51.194;6.840;2022-09-28T11:23:57;8.35;;;2.00;;
18082;SDS011;9168;51.194;6.840;2022-09-28T11:26:33;7.93;;;2.13;;
18082;SDS011;9168;51.194;6.840;2022-09-28T11:29:05;8.70;;;1.70;;
18082;SDS011;9168;51.194;6.840;2022-09-28T11:31:43;3.55;;;1.45;;
18082;SDS011;9168;51.194;6.840;2022-09-28T11:34:12;5.57;;;1.58;;
18082;SDS011;9168;51.194;6.840;2022-09-28T11:36:53;5.97;;;1.50;;
18082;SDS011;9168;51.194;6.840;2022-09-28T11:39:40;8.02;;;1.30;;
18082;SDS011;9168;51.194;6.840;2022-09-28T11:42:18;4.80;;;1.17;;
18082;SDS011;9168;51.194;6.840;2022-09-28T11:44:55;6.78;;;1.27;;
18082;SDS011;9168;51.194;6.840;2022-09-28T11:47:34;4.70;;;1.20;;
18082;SDS011;9168;51.194;6.840;2022-09-28T11:50:15;1.88;;;1.27;;
18082;SDS011;9168;51.194;6.840;2022-09-28T11:52:48;4.55;;;1.60;;
18082;SDS011;9168;51.194;6.840;2022-09-28T11:55:23;4.93;;;1.60;;
18082;SDS011;9168;51.194;6.840;2022-09-28T11:57:59;6.85;;;1.58;;
18082;SDS011;9168;51.194;6.840;2022-09-28T12:00:32;4.22;;;1.27;;
18082;SDS011;9168;51.194;6.840;2022-09-28T12:03:07;3.55;;;1.52;;
18082;SDS011;9168;51.194;6.840;2022-09-28T12:05:40;7.22;;;1.60;;
18082;SDS011;9168;51.194;6.840;2022-09-28T12:08:13;2.67;;;1.35;;
18082;SDS011;9168;51.194;6.840;2022-09-28T12:10:46;6.07;;;1.50;;
18082;SDS011;9168;51.194;6.840;2022-09-28T12:13:21;3.88;;;1.70;;
18082;SDS011;9168;51.194;6.840;2022-09-28T12:15:53;3.72;;;1.70;;
18082;SDS011;9168;51.194;6.840;2022-09-28T12:18:24;4.95;;;1.65;;
18082;SDS011;9168;51.194;6.840;2022-09-28T12:20:58;7.32;;;1.92;;
18082;SDS011;9168;51.194;6.840;2022-09-28T12:23:33;4.50;;;1.30;;
18082;SDS011;9168;51.194;6.840;2022-09-28T12:26:04;5.97;;;1.40;;
18082;SDS011;9168;51.194;6.840;2022-09-28T12:28:44;8.35;;;1.45;;
18082;SDS011;9168;51.194;6.840;2022-09-28T12:31:15;4.00;;;1.10;;
18082;SDS011;9168;51.194;6.840;2022-09-28T12:33:47;7.55;;;1.40;;
18082;SDS011;9168;51.194;6.840;2022-09-28T12:36:20;11.18;;;1.48;;
18082;SDS011;9168;51.194;6.840;2022-09-28T12:39:09;4.43;;;1.02;;
18082;SDS011;9168;51.194;6.840;2022-09-28T12:41:53;5.55;;;1.42;;
18082;SDS011;9168;51.194;6.840;2022-09-28T12:44:43;6.15;;;1.05;;
18082;SDS011;9168;51.194;6.840;2022-09-28T12:47:26;5.15;;;1.08;;
18082;SDS011;9168;51.194;6.840;2022-09-28T12:50:12;4.28;;;1.20;;
18082;SDS011;9168;51.194;6.840;2022-09-28T12:52:54;5.50;;;1.25;;
18082;SDS011;9168;51.194;6.840;2022-09-28T13:01:13;4.28;;;1.15;;
18082;SDS011;9168;51.194;6.840;2022-09-28T13:03:58;4.05;;;1.35;;
18082;SDS011;9168;51.194;6.840;2022-09-28T13:06:52;6.38;;;1.42;;
18082;SDS011;9168;51.194;6.840;2022-09-28T13:09:25;5.97;;;1.35;;
18082;SDS011;9168;51.194;6.840;2022-09-28T13:17:49;2.50;;;1.02;;
18082;SDS011;9168;51.194;6.840;2022-09-28T13:20:25;8.52;;;1.15;;
18082;SDS011;9168;51.194;6.840;2022-09-28T13:23:03;1.98;;;0.88;;
18082;SDS011;9168;51.194;6.840;2022-09-28T13:25:40;6.35;;;1.05;;
18082;SDS011;9168;51.194;6.840;2022-09-28T13:28:11;1.33;;;0.90;;
18082;SDS011;9168;51.194;6.840;2022-09-28T13:30:41;4.47;;;0.98;;
18082;SDS011;9168;51.194;6.840;2022-09-28T13:33:12;3.25;;;0.90;;
18082;SDS011;9168;51.194;6.840;2022-09-28T13:35:44;3.95;;;0.95;;
18082;SDS011;9168;51.194;6.840;2022-09-28T13:38:37;5.50;;;0.82;;
18082;SDS011;9168;51.194;6.840;2022-09-28T13:41:17;2.00;;;0.80;;
18082;SDS011;9168;51.194;6.840;2022-09-28T13:43:54;3.90;;;0.80;;
18082;SDS011;9168;51.194;6.840;2022-09-28T13:46:32;2.58;;;0.90;;
18082;SDS011;9168;51.194;6.840;2022-09-28T13:49:12;5.35;;;1.00;;
18082;SDS011;9168;51.194;6.840;2022-09-28T13:51:54;4.10;;;0.90;;
18082;SDS011;9168;51.194;6.840;2022-09-28T13:54:33;2.20;;;0.77;;
18082;SDS011;9168;51.194;6.840;2022-09-28T13:57:15;5.55;;;0.70;;
18082;SDS011;9168;51.194;6.840;2022-09-28T13:59:50;5.38;;;1.10;;
18082;SDS011;9168;51.194;6.840;2022-09-28T14:02:27;3.85;;;1.00;;
18082;SDS011;9168;51.194;6.840;2022-09-28T14:04:59;6.22;;;1.15;;
18082;SDS011;9168;51.194;6.840;2022-09-28T14:10:49;3.33;;;1.00;;
18082;SDS011;9168;51.194;6.840;2022-09-28T14:16:21;3.25;;;0.98;;
18082;SDS011;9168;51.194;6.840;2022-09-28T14:18:51;7.82;;;1.20;;
18082;SDS011;9168;51.194;6.840;2022-09-28T14:21:27;4.45;;;0.95;;
18082;SDS011;9168;51.194;6.840;2022-09-28T14:24:27;3.67;;;1.13;;
18082;SDS011;9168;51.194;6.840;2022-09-28T14:27:22;3.33;;;0.88;;
18082;SDS011;9168;51.194;6.840;2022-09-28T14:30:07;4.22;;;1.02;;
18082;SDS011;9168;51.194;6.840;2022-09-28T14:32:55;2.13;;;0.93;;
18082;SDS011;9168;51.194;6.840;2022-09-28T14:35:26;2.45;;;0.90;;
18082;SDS011;9168;51.194;6.840;2022-09-28T14:37:57;4.10;;;0.85;;
18082;SDS011;9168;51.194;6.840;2022-09-28T14:52:09;5.30;;;1.00;;
18082;SDS011;9168;51.194;6.840;2022-09-28T14:57:23;3.45;;;0.85;;
18082;SDS011;9168;51.194;6.840;2022-09-28T14:59:55;2.60;;;0.80;;
18082;SDS011;9168;51.194;6.840;2022-09-28T15:02:25;2.88;;;0.93;;
18082;SDS011;9168;51.194;6.840;2022-09-28T15:04:56;5.93;;;0.98;;
18082;SDS011;9168;51.194;6.840;2022-09-28T15:07:41;1.65;;;0.60;;
18082;SDS011;9168;51.194;6.840;2022-09-28T15:10:20;0.70;;;0.50;;
18082;SDS011;9168;51.194;6.840;2022-09-28T15:12:51;3.58;;;0.90;;
18082;SDS011;9168;51.194;6.840;2022-09-28T15:15:24;1.67;;;0.60;;
18082;SDS011;9168;51.194;6.840;2022-09-28T15:17:58;1.83;;;0.60;;
18082;SDS011;9168;51.194;6.840;2022-09-28T15:20:34;2.88;;;0.60;;
18082;SDS011;9168;51.194;6.840;2022-09-28T15:23:21;0.60;;;0.60;;
18082;SDS011;9168;51.194;6.840;2022-09-28T15:25:50;2.35;;;0.70;;
18082;SDS011;9168;51.194;6.840;2022-09-28T15:28:18;3.35;;;0.90;;
18082;SDS011;9168;51.194;6.840;2022-09-28T15:30:48;2.78;;;0.90;;
18082;SDS011;9168;51.194;6.840;2022-09-28T15:33:22;5.63;;;0.98;;
18082;SDS011;9168;51.194;6.840;2022-09-28T15:36:07;2.55;;;0.82;;
18082;SDS011;9168;51.194;6.840;2022-09-28T15:38:40;1.45;;;0.60;;
18082;SDS011;9168;51.194;6.840;2022-09-28T15:41:08;4.07;;;0.88;;
18082;SDS011;9168;51.194;6.840;2022-09-28T15:43:35;3.88;;;1.00;;
18082;SDS011;9168;51.194;6.840;2022-09-28T15:46:05;11.20;;;2.22;;
18082;SDS011;9168;51.194;6.840;2022-09-28T15:48:35;22.02;;;3.88;;
18082;SDS011;9168;51.194;6.840;2022-09-28T15:51:08;6.82;;;1.88;;
18082;SDS011;9168;51.194;6.840;2022-09-28T15:53:39;6.50;;;1.80;;
18082;SDS011;9168;51.194;6.840;2022-09-28T15:56:08;5.13;;;1.60;;
18082;SDS011;9168;51.194;6.840;2022-09-28T15:58:37;6.60;;;1.10;;
18082;SDS011;9168;51.194;6.840;2022-09-28T16:01:19;3.55;;;1.30;;
18082;SDS011;9168;51.194;6.840;2022-09-28T16:04:00;12.98;;;1.90;;